La Aurora Airport Guatemala City US
ICAO: MGGT
IATA: GUA
Category: Medium
Scheduled Services: Yes

Elevation: 4952 ft
TransAlt. 18000 ft.

Airport Communications:
GUATEMALA RDO:126.9
CON:119.3
ATIS:126.5
CLNC DEL:120.7
GND:121.9
TWR:118.1

MGGT Zoom In..

If you have problems with the map follow the link
https://www.worldairports.se/pages/airport.php?
ICAO=MGGT

Runways:

(A) RW 01 length 9800 ft width 197 ft
ILS 110.10 / hdg 16

(B) RW 19 length 9800 ft width 197 ft
---- / hdg 196

Location; MGGT
Day. 07 / Time. 08.00 Zulu
* Altimeter: 30.39
* Temperature: 15° c. 59°f.
* Wind from: 360° Speed 12 kn.
Dewpoint: 13° c.
Visibility: 10 km or more.
Clouds: Overcast 1400 ft.

MGGT 070800Z 36012KT 9999 OVC014 15/13 Q1029 A3039


Wind From 360°
Speed 12 kn.

 
 
jpsmedia worldairports.se 2019   terms of use